Time;durP1;ratioP1;P1;durP2;ratioP2;P2;SDS_P1;SDS_P2;PMS_P1;PMS_P2;Temp;Humidity;BMP_temperature;BMP_pressure;BME280_temperature;BME280_humidity;BME280_pressure;Samples;Min_cycle;Max_cycle;Signal;HPM_P1;HPM_P2
2023/01/14 00:01:22;;;;;;;4.17;1.13;;;5.60;38.90;;;;;;6083312;23;20762;-75
2023/01/14 00:03:49;;;;;;;5.63;1.27;;;5.60;38.70;;;;;;6088397;23;20457;-79
2023/01/14 00:06:18;;;;;;;4.80;1.00;;;5.70;38.70;;;;;;6090098;23;20732;-80
2023/01/14 00:08:46;;;;;;;5.13;1.10;;;5.80;38.50;;;;;;6090881;23;20953;-83
2023/01/14 00:11:15;;;;;;;8.03;1.13;;;5.70;38.30;;;;;;6089974;23;20453;-81
2023/01/14 00:13:43;;;;;;;5.10;1.00;;;5.80;38.10;;;;;;6088685;23;20446;-80
2023/01/14 00:16:12;;;;;;;6.13;1.33;;;5.80;38.10;;;;;;6089715;23;20909;-78
2023/01/14 00:18:40;;;;;;;4.40;1.23;;;5.80;37.90;;;;;;6090217;23;20423;-81
2023/01/14 00:21:08;;;;;;;6.40;1.50;;;5.80;37.70;;;;;;6087832;23;20537;-78
2023/01/14 00:23:36;;;;;;;5.20;0.90;;;5.80;37.50;;;;;;6090298;23;20768;-80
2023/01/14 00:26:07;;;;;;;5.47;1.20;;;5.80;37.30;;;;;;6089404;23;20418;-80
2023/01/14 00:28:34;;;;;;;8.67;1.20;;;5.90;37.30;;;;;;6089971;23;20843;-79
2023/01/14 00:31:06;;;;;;;5.80;0.90;;;5.90;37.20;;;;;;6089148;23;20439;-80
2023/01/14 00:33:35;;;;;;;5.77;1.83;;;5.90;37.20;;;;;;6088714;23;20442;-80
2023/01/14 00:36:02;;;;;;;4.23;0.90;;;6.00;37.10;;;;;;6090001;23;20429;-78
2023/01/14 00:38:29;;;;;;;6.90;1.87;;;6.00;37.00;;;;;;6090017;23;20418;-79
2023/01/14 00:41:06;;;;;;;6.50;1.33;;;6.00;36.70;;;;;;6092320;23;20445;-80
2023/01/14 00:43:33;;;;;;;5.53;1.10;;;6.00;36.80;;;;;;6090334;23;20908;-78
2023/01/14 00:46:00;;;;;;;6.83;1.27;;;6.00;36.70;;;;;;6091358;23;20440;-79
2023/01/14 00:48:26;;;;;;;6.50;1.30;;;6.10;36.80;;;;;;6090789;23;20790;-77
2023/01/14 00:50:53;;;;;;;9.17;1.57;;;6.10;36.90;;;;;;6090865;23;20445;-78
2023/01/14 00:53:20;;;;;;;4.30;1.10;;;6.10;36.90;;;;;;6090012;23;20425;-79
2023/01/14 00:55:46;;;;;;;7.53;1.13;;;6.10;36.90;;;;;;6091545;23;20428;-79
2023/01/14 00:58:14;;;;;;;6.30;1.03;;;6.10;37.00;;;;;;6090019;23;20836;-80
2023/01/14 01:00:41;;;;;;;4.13;0.83;;;6.20;37.10;;;;;;6091185;23;20438;-79
2023/01/14 01:03:08;;;;;;;6.27;1.03;;;6.20;36.90;;;;;;6090262;23;20437;-80
2023/01/14 01:05:36;;;;;;;6.90;1.47;;;6.20;36.90;;;;;;6090694;23;20445;-79
2023/01/14 01:08:02;;;;;;;7.60;1.70;;;6.20;37.10;;;;;;6092574;23;20422;-77
2023/01/14 01:10:29;;;;;;;6.23;1.90;;;6.20;37.00;;;;;;6089842;23;20771;-78
2023/01/14 01:12:56;;;;;;;11.20;2.13;;;6.20;37.10;;;;;;6092076;23;20418;-78
2023/01/14 01:15:24;;;;;;;5.40;1.77;;;6.20;37.10;;;;;;6088767;23;20442;-79
2023/01/14 01:17:51;;;;;;;6.13;1.30;;;6.10;37.30;;;;;;6092590;23;20419;-78
2023/01/14 01:20:18;;;;;;;6.43;1.40;;;6.10;37.40;;;;;;6100408;23;20458;-80
2023/01/14 01:22:44;;;;;;;8.40;1.30;;;6.00;37.60;;;;;;6090868;23;20418;-80
2023/01/14 01:25:11;;;;;;;10.50;2.30;;;6.00;37.70;;;;;;6091205;23;20418;-78
2023/01/14 01:27:38;;;;;;;5.03;1.10;;;5.90;37.90;;;;;;6090456;23;20422;-79
2023/01/14 01:30:06;;;;;;;6.60;1.50;;;5.90;38.00;;;;;;6091625;23;20433;-81
2023/01/14 01:32:34;;;;;;;13.57;1.60;;;5.90;38.10;;;;;;6087853;23;20792;-80
2023/01/14 01:35:00;;;;;;;9.97;1.67;;;5.80;38.10;;;;;;6089253;23;20446;-78
2023/01/14 01:37:27;;;;;;;6.93;1.60;;;5.80;38.20;;;;;;6090954;23;20445;-77
2023/01/14 01:39:54;;;;;;;5.50;1.10;;;5.80;38.30;;;;;;6091439;23;20771;-79
2023/01/14 01:42:23;;;;;;;4.03;0.87;;;5.80;38.40;;;;;;6090436;23;20453;-78
2023/01/14 01:45:28;;;;;;;7.43;1.13;;;5.80;38.50;;;;;;6092180;23;20441;-79
2023/01/14 01:48:01;;;;;;;4.97;1.40;;;5.90;38.50;;;;;;6089981;23;20406;-79
2023/01/14 01:50:28;;;;;;;5.27;1.20;;;5.80;38.20;;;;;;6091820;23;20438;-79
2023/01/14 01:52:55;;;;;;;6.67;1.20;;;5.80;38.30;;;;;;6088301;23;20402;-80
2023/01/14 01:55:22;;;;;;;6.17;1.07;;;5.80;38.40;;;;;;6091544;23;20449;-77
2023/01/14 01:57:55;;;;;;;5.17;1.27;;;5.70;38.60;;;;;;6090657;23;20424;-79
2023/01/14 02:00:23;;;;;;;6.70;1.50;;;5.70;38.70;;;;;;6087715;23;20493;-79
2023/01/14 02:02:53;;;;;;;7.17;1.93;;;5.70;38.70;;;;;;6089095;23;20425;-79
2023/01/14 02:05:22;;;;;;;6.67;1.50;;;5.70;38.80;;;;;;6090419;23;20417;-80
2023/01/14 02:07:48;;;;;;;5.10;1.13;;;5.70;38.90;;;;;;6090456;23;20641;-79
2023/01/14 02:10:16;;;;;;;5.87;1.50;;;5.70;38.90;;;;;;6091007;23;20418;-82
2023/01/14 02:13:15;;;;;;;7.07;1.10;;;5.60;38.90;;;;;;6090994;23;20418;-80
2023/01/14 02:15:55;;;;;;;6.60;2.23;;;5.60;39.10;;;;;;6070272;23;20446;-78
2023/01/14 02:18:38;;;;;;;7.23;1.23;;;5.60;39.10;;;;;;6090291;23;20410;-80
2023/01/14 02:21:13;;;;;;;6.73;1.63;;;5.60;39.10;;;;;;6089372;23;20445;-80
2023/01/14 02:24:13;;;;;;;5.00;1.40;;;5.60;39.20;;;;;;6090797;23;20402;-81
2023/01/14 02:27:08;;;;;;;6.10;1.30;;;5.70;39.30;;;;;;6092261;23;20415;-80
2023/01/14 02:29:53;;;;;;;6.30;1.23;;;5.70;39.40;;;;;;6090986;23;20398;-82
2023/01/14 02:32:28;;;;;;;5.33;1.50;;;5.60;39.20;;;;;;6089334;23;20445;-79
2023/01/14 02:35:02;;;;;;;5.70;1.50;;;5.60;39.30;;;;;;6090254;23;20501;-81
2023/01/14 02:37:35;;;;;;;7.10;1.40;;;5.60;39.30;;;;;;6090085;23;20425;-80
2023/01/14 02:40:10;;;;;;;7.53;1.70;;;5.60;39.30;;;;;;6091559;23;20774;-79
2023/01/14 02:45:34;;;;;;;6.80;1.50;;;5.60;39.50;;;;;;6090282;23;20470;-76
2023/01/14 02:48:04;;;;;;;10.73;1.30;;;5.60;39.60;;;;;;6089203;23;20468;-78
2023/01/14 02:50:32;;;;;;;7.17;1.80;;;5.60;39.80;;;;;;6091760;23;20469;-76
2023/01/14 02:52:59;;;;;;;7.27;1.20;;;5.60;39.90;;;;;;6090623;23;20403;-78
2023/01/14 02:55:31;;;;;;;5.23;1.60;;;5.60;39.90;;;;;;6088881;23;20791;-77
2023/01/14 02:58:17;;;;;;;6.00;1.50;;;5.60;40.10;;;;;;6089889;23;20422;-76
2023/01/14 03:00:53;;;;;;;6.03;1.23;;;5.60;40.10;;;;;;6088501;23;20440;-78
2023/01/14 03:03:36;;;;;;;4.93;1.10;;;5.60;40.10;;;;;;6087948;23;20432;-78
2023/01/14 03:06:25;;;;;;;5.10;0.93;;;5.60;40.10;;;;;;6089006;23;20410;-78
2023/01/14 03:08:59;;;;;;;4.30;1.00;;;5.60;40.00;;;;;;6089457;23;20930;-76
2023/01/14 03:11:33;;;;;;;6.90;1.30;;;5.60;39.80;;;;;;6090219;23;20886;-78
2023/01/14 03:14:03;;;;;;;4.80;1.03;;;5.60;39.60;;;;;;6090257;23;20407;-78
2023/01/14 03:16:35;;;;;;;7.73;1.13;;;5.60;39.60;;;;;;6090564;23;20843;-75
2023/01/14 03:19:06;;;;;;;6.00;0.90;;;5.60;39.70;;;;;;6090669;23;20402;-78
2023/01/14 03:21:36;;;;;;;4.40;0.80;;;5.70;39.60;;;;;;6090597;23;20442;-78
2023/01/14 03:24:08;;;;;;;5.23;1.20;;;5.60;39.40;;;;;;6089131;23;20418;-78
2023/01/14 03:26:37;;;;;;;8.10;1.60;;;5.70;39.30;;;;;;6090966;23;20403;-78
2023/01/14 03:29:09;;;;;;;5.67;0.90;;;5.70;39.20;;;;;;6090320;23;20422;-76
2023/01/14 03:31:42;;;;;;;7.10;1.10;;;5.70;39.10;;;;;;6089135;23;20449;-77
2023/01/14 03:34:13;;;;;;;6.00;1.33;;;5.70;39.20;;;;;;6090258;23;20413;-78
2023/01/14 03:36:42;;;;;;;7.00;0.97;;;5.70;39.10;;;;;;6090911;23;20429;-76
2023/01/14 03:39:13;;;;;;;5.10;1.07;;;5.70;38.90;;;;;;6090101;23;20429;-78
2023/01/14 03:44:31;;;;;;;6.83;1.20;;;5.70;38.40;;;;;;6089902;23;20449;-78
2023/01/14 03:47:00;;;;;;;5.43;1.27;;;5.70;38.30;;;;;;6090818;23;20409;-80
2023/01/14 03:49:27;;;;;;;5.10;1.00;;;5.80;38.30;;;;;;6088995;23;20423;-79
2023/01/14 03:51:59;;;;;;;4.80;0.93;;;5.70;38.20;;;;;;6077381;23;20789;-63
2023/01/14 03:54:31;;;;;;;5.43;1.50;;;5.70;38.30;;;;;;6060569;23;20438;-63
2023/01/14 03:57:04;;;;;;;5.47;1.00;;;5.60;38.30;;;;;;6061224;23;20411;-64
2023/01/14 03:59:42;;;;;;;6.13;1.27;;;5.60;38.20;;;;;;6061220;23;20411;-64
2023/01/14 04:02:12;;;;;;;5.13;0.87;;;5.60;38.30;;;;;;6060095;23;20450;-64
2023/01/14 04:04:39;;;;;;;7.83;1.37;;;5.60;38.40;;;;;;6060908;23;20400;-64
2023/01/14 04:07:06;;;;;;;4.57;1.00;;;5.60;38.40;;;;;;6059678;23;20426;-63
2023/01/14 04:09:33;;;;;;;5.73;1.13;;;5.60;38.40;;;;;;6061579;23;20429;-63
2023/01/14 04:12:00;;;;;;;6.30;2.10;;;5.60;38.30;;;;;;6060617;23;20826;-63
2023/01/14 04:17:13;;;;;;;4.13;0.90;;;5.50;38.40;;;;;;6062001;23;20483;-63
2023/01/14 04:19:40;;;;;;;4.27;0.97;;;5.50;38.50;;;;;;6061605;23;20419;-63
2023/01/14 04:22:07;;;;;;;5.50;1.07;;;5.40;38.40;;;;;;6061470;23;20443;-63
2023/01/14 04:24:33;;;;;;;6.60;1.17;;;5.40;38.40;;;;;;6062716;23;20422;-63
2023/01/14 04:27:00;;;;;;;6.33;1.07;;;5.30;38.60;;;;;;6063146;23;20419;-63
2023/01/14 04:29:27;;;;;;;5.97;1.03;;;5.30;38.70;;;;;;6060131;23;20423;-63
2023/01/14 04:31:54;;;;;;;4.63;0.80;;;5.30;38.70;;;;;;6081210;23;20445;-63
2023/01/14 04:34:22;;;;;;;6.40;0.90;;;5.30;38.80;;;;;;6089376;23;20421;-63
2023/01/14 04:36:48;;;;;;;4.60;1.00;;;5.30;38.80;;;;;;6090934;23;20428;-63
2023/01/14 04:39:15;;;;;;;4.57;0.80;;;5.20;38.80;;;;;;6091911;23;20426;-63
2023/01/14 04:44:26;;;;;;;5.83;0.80;;;5.20;38.90;;;;;;6090470;23;20454;-63
2023/01/14 04:46:53;;;;;;;5.57;1.10;;;5.10;39.00;;;;;;6091438;23;20422;-63
2023/01/14 04:49:21;;;;;;;3.97;0.70;;;5.10;39.10;;;;;;6090082;23;20425;-63
2023/01/14 04:51:48;;;;;;;4.60;0.90;;;5.10;39.10;;;;;;6091971;23;20457;-63
2023/01/14 04:54:14;;;;;;;9.23;1.37;;;5.10;39.20;;;;;;6091459;23;20418;-63
2023/01/14 04:56:41;;;;;;;5.67;1.13;;;5.10;39.40;;;;;;6090871;23;20422;-62
2023/01/14 04:59:10;;;;;;;6.63;1.87;;;5.10;39.50;;;;;;6089976;23;20421;-63
2023/01/14 05:01:37;;;;;;;4.83;1.10;;;5.10;39.80;;;;;;6087957;23;20441;-62
2023/01/14 05:04:04;;;;;;;6.80;1.17;;;5.10;39.80;;;;;;6090862;23;20422;-62
2023/01/14 05:06:32;;;;;;;6.00;1.30;;;5.10;39.70;;;;;;6091541;23;20410;-62
2023/01/14 05:08:58;;;;;;;5.50;2.10;;;5.10;39.70;;;;;;6089381;23;20414;-62
2023/01/14 05:11:25;;;;;;;6.60;1.30;;;5.10;40.20;;;;;;6089090;23;20435;-62
2023/01/14 05:13:52;;;;;;;7.50;2.50;;;5.10;40.30;;;;;;6091403;23;20421;-63
2023/01/14 05:16:18;;;;;;;5.43;1.20;;;5.10;40.80;;;;;;6090381;23;20438;-62
2023/01/14 05:18:46;;;;;;;8.40;1.50;;;5.10;41.40;;;;;;6092147;23;20419;-62
2023/01/14 05:21:12;;;;;;;5.30;1.60;;;5.00;41.60;;;;;;6090746;23;20446;-62
2023/01/14 05:23:40;;;;;;;8.00;1.43;;;5.10;42.20;;;;;;6091389;23;20901;-62
2023/01/14 05:26:07;;;;;;;7.70;1.40;;;5.10;42.20;;;;;;6091267;23;20422;-62
2023/01/14 05:28:34;;;;;;;9.53;1.67;;;5.10;42.20;;;;;;6091118;23;20452;-62
2023/01/14 05:31:01;;;;;;;12.10;1.97;;;5.10;42.30;;;;;;6090324;23;20450;-62
2023/01/14 05:33:28;;;;;;;7.80;1.60;;;5.20;42.50;;;;;;6090926;23;20444;-63
2023/01/14 05:35:56;;;;;;;5.93;1.10;;;5.20;42.50;;;;;;6090932;23;20439;-62
2023/01/14 05:38:22;;;;;;;6.63;1.93;;;5.20;42.60;;;;;;6090231;23;20418;-63
2023/01/14 05:40:51;;;;;;;12.40;2.03;;;5.20;42.80;;;;;;6087994;23;20438;-63
2023/01/14 05:46:06;;;;;;;6.03;1.87;;;5.20;42.70;;;;;;6089011;23;20390;-63
2023/01/14 05:48:33;;;;;;;11.47;2.13;;;5.30;42.60;;;;;;6092878;23;20409;-62
2023/01/14 05:51:01;;;;;;;8.30;1.77;;;5.30;42.80;;;;;;6088320;23;20457;-62
2023/01/14 05:53:28;;;;;;;5.00;1.03;;;5.30;42.70;;;;;;6090937;23;20893;-63
2023/01/14 05:55:57;;;;;;;8.83;2.13;;;5.30;42.50;;;;;;6089010;23;20449;-62
2023/01/14 05:58:25;;;;;;;11.57;2.03;;;5.20;42.40;;;;;;6089974;23;20418;-62
2023/01/14 06:06:25;;;;;;;6.53;1.50;;;5.20;42.20;;;;;;6091594;23;20393;-63
2023/01/14 06:08:54;;;;;;;5.90;1.47;;;5.20;42.00;;;;;;6091549;23;20403;-63
2023/01/14 06:11:24;;;;;;;6.57;1.40;;;5.10;42.10;;;;;;6090246;23;20798;-63
2023/01/14 06:13:54;;;;;;;7.13;2.10;;;5.10;42.20;;;;;;6090776;23;20418;-63
2023/01/14 06:16:21;;;;;;;6.93;1.43;;;5.10;42.30;;;;;;6089235;23;20426;-63
2023/01/14 06:18:47;;;;;;;9.73;1.80;;;5.10;42.30;;;;;;6091026;23;20426;-63
2023/01/14 06:21:16;;;;;;;9.80;2.13;;;5.00;42.50;;;;;;6091350;23;20438;-63
2023/01/14 06:23:43;;;;;;;7.37;1.73;;;5.00;42.70;;;;;;6089110;23;21139;-64
2023/01/14 06:26:12;;;;;;;10.43;2.13;;;5.00;42.80;;;;;;6090560;23;20418;-64
2023/01/14 06:28:40;;;;;;;11.23;2.30;;;5.00;42.70;;;;;;6090715;23;20422;-63
2023/01/14 06:31:11;;;;;;;9.20;1.97;;;4.90;42.80;;;;;;6090706;23;20448;-63
2023/01/14 06:33:38;;;;;;;6.33;1.70;;;4.90;42.80;;;;;;6089611;23;20935;-64
2023/01/14 06:36:06;;;;;;;9.70;1.70;;;4.90;42.80;;;;;;6089873;23;20742;-64
2023/01/14 06:38:33;;;;;;;10.10;2.00;;;4.90;42.70;;;;;;6090681;23;20419;-63
2023/01/14 06:41:00;;;;;;;8.77;1.77;;;4.90;42.70;;;;;;6090368;23;20447;-63
2023/01/14 06:43:27;;;;;;;10.07;1.80;;;4.90;42.70;;;;;;6087250;23;20423;-63
2023/01/14 06:45:55;;;;;;;6.30;1.73;;;4.90;42.50;;;;;;6089610;23;20415;-63
2023/01/14 06:48:23;;;;;;;7.37;1.70;;;4.80;42.40;;;;;;6090226;23;20423;-63
2023/01/14 06:50:50;;;;;;;8.23;2.03;;;4.80;42.60;;;;;;6091000;23;20525;-63
2023/01/14 06:53:17;;;;;;;9.17;1.90;;;4.80;42.50;;;;;;6089907;23;20410;-63
2023/01/14 06:55:43;;;;;;;7.80;1.93;;;4.70;42.50;;;;;;6090481;23;20442;-63
2023/01/14 06:58:10;;;;;;;7.23;2.30;;;4.70;42.60;;;;;;6089839;23;20418;-63
2023/01/14 07:00:38;;;;;;;9.73;1.70;;;4.70;42.80;;;;;;6090647;23;20821;-62
2023/01/14 07:03:06;;;;;;;8.53;2.03;;;4.70;43.00;;;;;;6090935;23;20453;-62
2023/01/14 07:05:32;;;;;;;16.87;2.53;;;4.70;42.80;;;;;;6088816;23;20473;-63
2023/01/14 07:07:59;;;;;;;10.70;2.70;;;4.80;42.80;;;;;;6091205;23;20429;-63
2023/01/14 07:10:26;;;;;;;8.33;2.00;;;4.80;42.90;;;;;;6090404;23;20418;-63
2023/01/14 07:12:53;;;;;;;12.50;2.57;;;4.80;42.80;;;;;;6089913;23;20482;-63
2023/01/14 07:15:21;;;;;;;8.90;2.27;;;4.80;42.80;;;;;;6090010;23;20444;-63
2023/01/14 07:17:49;;;;;;;7.80;2.40;;;4.70;43.00;;;;;;6090473;23;20453;-63
2023/01/14 07:20:18;;;;;;;9.07;2.90;;;4.70;42.90;;;;;;6090900;23;20426;-63
2023/01/14 07:22:45;;;;;;;7.13;3.07;;;4.70;43.10;;;;;;6089344;23;20438;-63
2023/01/14 07:25:12;;;;;;;8.90;2.93;;;4.80;43.20;;;;;;6090743;23;20419;-63
2023/01/14 07:27:38;;;;;;;11.20;2.20;;;4.80;43.00;;;;;;6089581;23;20448;-63
2023/01/14 07:30:06;;;;;;;9.57;2.57;;;4.80;43.10;;;;;;6088653;23;20422;-63
2023/01/14 10:18:44;;;;;;;9.23;2.00;;;9.80;22.80;;;;;;6098094;23;20550;-62
2023/01/14 10:21:20;;;;;;;8.13;1.90;;;9.60;23.90;;;;;;6054410;23;20427;-61
2023/01/14 10:23:47;;;;;;;7.87;2.23;;;9.60;24.00;;;;;;6052551;23;20403;-61
2023/01/14 10:36:37;;;;;;;7.00;1.60;;;9.50;25.10;;;;;;6086368;23;20451;-62
2023/01/14 10:39:06;;;;;;;5.70;1.50;;;9.50;24.20;;;;;;6058804;23;20423;-61
2023/01/14 10:41:51;;;;;;;4.47;1.17;;;9.60;25.00;;;;;;6059606;23;20977;-62
2023/01/14 10:44:23;;;;;;;4.80;1.50;;;9.60;25.20;;;;;;6060148;23;20994;-63
2023/01/14 10:46:51;;;;;;;9.13;2.10;;;9.60;25.20;;;;;;6058991;23;20435;-64
2023/01/14 10:49:22;;;;;;;7.67;1.20;;;9.50;25.30;;;;;;6061787;23;20750;-64
2023/01/14 10:51:50;;;;;;;6.13;1.30;;;9.60;25.60;;;;;;6061045;23;20404;-64
2023/01/14 10:54:18;;;;;;;5.77;1.30;;;9.70;24.40;;;;;;6061602;23;20426;-64
2023/01/14 10:56:49;;;;;;;10.53;1.53;;;9.90;24.60;;;;;;6060068;23;20538;-64
2023/01/14 10:59:42;;;;;;;6.10;1.57;;;10.30;24.60;;;;;;6062321;23;20403;-64
2023/01/14 11:02:26;;;;;;;6.47;1.70;;;10.80;23.40;;;;;;6046513;23;20770;-65
2023/01/14 11:04:54;;;;;;;5.97;1.10;;;11.40;22.20;;;;;;6059961;23;20407;-65
2023/01/14 11:07:29;;;;;;;4.60;1.10;;;12.00;20.10;;;;;;6061824;23;20431;-65
2023/01/14 11:09:57;;;;;;;7.83;1.47;;;12.50;19.00;;;;;;6060590;23;20909;-65
2023/01/14 11:12:29;;;;;;;6.77;1.40;;;13.00;17.60;;;;;;6062618;23;20427;-64
2023/01/14 11:14:57;;;;;;;6.80;1.40;;;13.30;16.40;;;;;;6031812;23;20423;-65
2023/01/14 11:17:25;;;;;;;6.03;1.27;;;13.50;16.20;;;;;;6033724;23;20454;-64
2023/01/14 11:20:12;;;;;;;5.60;1.03;;;13.80;15.30;;;;;;6032112;23;20424;-64
2023/01/14 11:22:41;;;;;;;4.10;0.90;;;14.10;14.90;;;;;;6033462;23;20466;-65
2023/01/14 11:25:22;;;;;;;3.83;1.00;;;14.30;13.40;;;;;;6033152;23;20443;-64
2023/01/14 11:27:50;;;;;;;5.50;1.37;;;14.40;13.50;;;;;;6033384;23;20400;-65
2023/01/14 11:30:19;;;;;;;3.57;0.90;;;14.30;13.00;;;;;;6032679;23;20432;-65
2023/01/14 11:32:49;;;;;;;6.30;1.20;;;14.10;13.40;;;;;;6032686;23;20424;-65
2023/01/14 11:35:21;;;;;;;4.70;1.03;;;13.90;12.30;;;;;;6032975;23;20424;-65
2023/01/14 11:37:53;;;;;;;5.10;1.00;;;13.60;13.30;;;;;;6033747;23;20429;-65
2023/01/14 11:40:24;;;;;;;4.87;1.10;;;13.50;14.20;;;;;;6033108;23;20415;-65
2023/01/14 11:42:52;;;;;;;6.27;1.33;;;13.40;14.50;;;;;;6042653;23;20519;-64
2023/01/14 11:45:21;;;;;;;6.70;1.33;;;13.30;14.40;;;;;;6042454;23;20430;-64
2023/01/14 11:47:50;;;;;;;5.40;1.20;;;13.30;14.90;;;;;;6043015;23;20420;-65
2023/01/14 11:50:20;;;;;;;3.77;1.10;;;13.20;15.00;;;;;;6041401;23;20524;-65
2023/01/14 11:52:59;;;;;;;4.30;1.40;;;13.10;15.00;;;;;;6039433;23;20682;-65
2023/01/14 11:55:29;;;;;;;4.70;1.30;;;13.20;15.60;;;;;;6040669;23;20444;-66
2023/01/14 11:58:02;;;;;;;5.20;1.50;;;13.20;15.90;;;;;;6041015;23;20453;-65
2023/01/14 12:00:32;;;;;;;4.50;1.20;;;13.10;15.90;;;;;;6037543;23;20416;-64
2023/01/14 12:03:02;;;;;;;5.40;1.00;;;13.10;15.70;;;;;;6041448;23;20932;-65
2023/01/14 12:05:30;;;;;;;3.77;0.80;;;13.00;15.60;;;;;;6042990;23;20467;-65
2023/01/14 12:08:05;;;;;;;4.60;1.03;;;12.90;15.50;;;;;;6039706;23;20424;-65
2023/01/14 12:10:36;;;;;;;5.23;1.00;;;12.80;15.30;;;;;;6041981;23;21102;-65
2023/01/14 12:19:03;;;;;;;3.87;1.00;;;12.50;15.60;;;;;;6034372;23;20546;-62
2023/01/14 12:27:06;;;;;;;7.03;2.50;;;12.10;15.80;;;;;;6024551;23;20443;-62
2023/01/14 12:32:13;;;;;;;5.43;1.40;;;11.80;16.10;;;;;;6014852;23;20482;-69
2023/01/14 12:34:44;;;;;;;4.20;1.73;;;11.70;16.00;;;;;;6026138;23;20455;-64
2023/01/14 12:37:14;;;;;;;4.50;1.90;;;11.60;16.60;;;;;;6026169;23;20805;-63
2023/01/14 12:45:44;;;;;;;5.23;1.50;;;11.30;17.80;;;;;;6004630;23;20436;-64
2023/01/14 12:48:13;;;;;;;4.80;1.13;;;11.20;17.90;;;;;;6006436;23;20503;-69
2023/01/14 12:50:52;;;;;;;4.33;1.47;;;11.10;17.60;;;;;;6006635;23;20516;-69
2023/01/14 12:53:23;;;;;;;4.70;1.60;;;11.00;17.60;;;;;;6006607;23;20416;-69
2023/01/14 12:55:53;;;;;;;5.47;2.10;;;11.00;17.50;;;;;;6005457;23;20737;-68
2023/01/14 12:58:24;;;;;;;3.90;1.00;;;10.90;18.20;;;;;;6006820;23;20892;-69
2023/01/14 13:00:53;;;;;;;4.37;1.40;;;10.90;18.20;;;;;;6013471;23;20797;-69
2023/01/14 13:03:25;;;;;;;4.47;1.20;;;10.80;17.40;;;;;;6006692;23;20420;-69
2023/01/14 13:05:53;;;;;;;6.73;1.70;;;10.80;17.10;;;;;;6005734;23;20412;-70
2023/01/14 13:08:37;;;;;;;7.23;2.00;;;10.70;18.00;;;;;;6005054;23;20421;-69
2023/01/14 13:11:46;;;;;;;7.97;1.80;;;10.60;18.50;;;;;;5954200;24;20563;-65
2023/01/14 13:14:38;;;;;;;4.73;1.90;;;10.60;18.60;;;;;;5946994;24;20442;-61
2023/01/14 13:17:45;;;;;;;6.37;1.20;;;10.60;17.70;;;;;;5996026;23;20512;-67
2023/01/14 13:20:45;;;;;;;5.23;1.60;;;10.50;17.90;;;;;;6015835;23;20473;-62
2023/01/14 13:26:57;;;;;;;4.23;1.10;;;10.50;17.60;;;;;;5963403;23;20416;-61
2023/01/14 13:29:27;;;;;;;6.53;1.43;;;10.40;18.20;;;;;;6004156;23;20409;-62
2023/01/14 13:31:55;;;;;;;4.13;0.80;;;10.40;17.90;;;;;;6004127;23;20772;-62
2023/01/14 13:35:02;;;;;;;5.73;1.40;;;10.30;17.00;;;;;;6006108;23;20453;-62
2023/01/14 13:37:34;;;;;;;5.43;1.60;;;10.30;17.50;;;;;;6005632;23;20775;-62
2023/01/14 13:40:05;;;;;;;9.03;3.43;;;10.20;17.70;;;;;;6006679;23;20413;-62
2023/01/14 13:42:38;;;;;;;13.83;4.73;;;10.20;18.10;;;;;;6005507;23;20406;-62
2023/01/14 13:45:22;;;;;;;6.17;2.07;;;10.20;17.80;;;;;;6006716;23;20552;-62
2023/01/14 13:47:50;;;;;;;3.70;0.77;;;10.10;17.80;;;;;;6005479;23;20413;-62
2023/01/14 13:50:23;;;;;;;4.37;1.00;;;10.10;17.80;;;;;;6004605;23;21135;-62
2023/01/14 13:52:53;;;;;;;5.60;0.90;;;10.00;18.10;;;;;;6004142;23;20410;-62
2023/01/14 13:55:23;;;;;;;4.40;1.17;;;10.00;18.10;;;;;;6004085;23;20441;-62
2023/01/14 13:57:53;;;;;;;4.70;1.50;;;9.90;18.30;;;;;;6013231;23;20452;-62
2023/01/14 14:00:37;;;;;;;5.03;1.63;;;10.00;18.40;;;;;;6003876;23;20424;-62
2023/01/14 14:03:41;;;;;;;5.17;1.40;;;10.00;17.90;;;;;;6002371;23;20860;-62
2023/01/14 14:06:43;;;;;;;4.60;1.00;;;9.90;18.50;;;;;;6001698;23;20428;-62
2023/01/14 14:09:31;;;;;;;6.00;1.20;;;9.90;18.40;;;;;;6004800;23;20420;-62
2023/01/14 14:15:02;;;;;;;5.20;1.13;;;9.80;18.70;;;;;;6001570;23;20432;-62
2023/01/14 14:17:34;;;;;;;5.13;1.00;;;9.80;18.60;;;;;;6002888;23;20473;-62
2023/01/14 14:20:03;;;;;;;3.80;1.00;;;9.80;18.70;;;;;;6004860;23;20405;-62
2023/01/14 14:22:38;;;;;;;4.63;0.87;;;9.80;18.40;;;;;;6005094;23;20757;-62
2023/01/14 14:25:08;;;;;;;5.27;1.20;;;9.70;18.60;;;;;;6005499;23;20444;-62
2023/01/14 14:27:37;;;;;;;4.43;1.00;;;9.70;18.60;;;;;;6003390;23;20508;-61
2023/01/14 14:30:07;;;;;;;5.00;1.17;;;9.80;18.40;;;;;;6006077;23;20425;-61
2023/01/14 14:32:38;;;;;;;3.90;1.00;;;9.70;18.50;;;;;;6002144;23;20448;-61
2023/01/14 14:35:12;;;;;;;6.97;1.40;;;9.70;18.20;;;;;;6003608;23;20950;-62
2023/01/14 14:37:40;;;;;;;6.43;1.73;;;9.70;18.70;;;;;;6004215;23;20767;-62
2023/01/14 14:40:15;;;;;;;4.87;1.50;;;9.70;18.70;;;;;;6003604;23;20425;-62
2023/01/14 14:42:43;;;;;;;4.47;1.20;;;9.70;18.50;;;;;;6003918;23;20405;-62
2023/01/14 14:45:26;;;;;;;5.40;1.93;;;9.70;18.50;;;;;;6004305;23;21075;-62
2023/01/14 14:47:55;;;;;;;3.80;1.00;;;9.70;18.00;;;;;;6004981;23;20896;-62
2023/01/14 14:50:29;;;;;;;5.27;1.30;;;9.60;18.30;;;;;;6004203;23;20900;-61
2023/01/14 14:52:55;;;;;;;5.20;1.37;;;9.60;18.30;;;;;;6003691;23;20406;-61
2023/01/14 14:55:22;;;;;;;5.13;1.43;;;9.60;18.30;;;;;;6002912;23;20448;-61
2023/01/14 14:57:50;;;;;;;3.80;1.20;;;9.50;18.10;;;;;;6001380;23;20821;-62
2023/01/14 15:00:21;;;;;;;10.30;3.80;;;9.50;18.30;;;;;;5997779;23;20422;-61
2023/01/14 15:02:50;;;;;;;4.40;1.20;;;9.50;18.50;;;;;;6003358;23;20409;-61
2023/01/14 15:05:21;;;;;;;5.00;1.30;;;9.40;18.60;;;;;;6002992;23;20441;-62
2023/01/14 15:07:49;;;;;;;4.57;1.20;;;9.40;18.70;;;;;;6003896;23;20780;-62
2023/01/14 15:10:19;;;;;;;5.83;1.20;;;9.30;18.90;;;;;;6003657;23;20421;-62
2023/01/14 15:12:45;;;;;;;5.40;1.40;;;9.40;18.90;;;;;;6003734;23;20421;-62
2023/01/14 15:15:19;;;;;;;4.77;0.90;;;9.30;18.90;;;;;;6004485;23;20484;-62
2023/01/14 15:17:47;;;;;;;6.33;1.37;;;9.30;19.10;;;;;;6004079;23;20465;-66
2023/01/14 15:20:15;;;;;;;7.00;1.50;;;9.30;19.10;;;;;;6003723;23;20421;-62
2023/01/14 15:22:46;;;;;;;6.73;1.50;;;9.30;19.20;;;;;;6001234;23;20425;-62
2023/01/14 15:25:15;;;;;;;5.07;1.20;;;9.20;19.20;;;;;;6001396;23;20472;-63
2023/01/14 15:27:43;;;;;;;6.47;1.60;;;9.20;19.40;;;;;;5998847;23;20421;-62
2023/01/14 15:30:23;;;;;;;4.90;1.00;;;9.20;19.40;;;;;;6002237;23;21101;-64
2023/01/14 15:32:50;;;;;;;5.13;1.43;;;9.20;19.60;;;;;;5971391;23;20772;-64
2023/01/14 15:35:26;;;;;;;5.90;1.80;;;9.20;19.60;;;;;;5973294;23;20994;-64
2023/01/14 15:37:56;;;;;;;6.30;1.90;;;9.20;19.80;;;;;;5976066;24;20444;-64
2023/01/14 15:40:30;;;;;;;4.90;1.43;;;9.20;19.80;;;;;;5975795;24;20436;-64
2023/01/14 15:42:57;;;;;;;4.70;1.27;;;9.10;19.80;;;;;;5974563;24;20406;-63
2023/01/14 15:45:27;;;;;;;6.43;1.50;;;9.10;19.60;;;;;;5975730;23;20476;-63
2023/01/14 15:47:59;;;;;;;5.43;1.43;;;9.10;19.70;;;;;;5976186;24;20424;-63
2023/01/14 15:50:29;;;;;;;5.63;1.80;;;9.10;19.60;;;;;;5973718;24;20744;-63
2023/01/14 15:53:16;;;;;;;6.80;1.87;;;9.10;19.30;;;;;;5974802;24;20421;-62
2023/01/14 15:56:00;;;;;;;5.57;1.63;;;9.10;19.40;;;;;;5976067;24;20880;-63
2023/01/14 15:58:29;;;;;;;6.43;2.37;;;9.10;19.60;;;;;;5975679;24;20434;-63
2023/01/14 16:00:58;;;;;;;4.60;1.40;;;9.10;19.30;;;;;;5983396;23;20445;-62
2023/01/14 16:03:30;;;;;;;7.10;2.87;;;9.10;19.40;;;;;;6002752;23;20906;-63
2023/01/14 16:05:56;;;;;;;11.23;4.70;;;9.10;19.70;;;;;;5999862;23;20449;-64
2023/01/14 16:08:25;;;;;;;8.20;3.43;;;9.00;20.20;;;;;;6001095;23;20431;-63
2023/01/14 16:10:52;;;;;;;7.60;2.60;;;9.00;19.60;;;;;;6006158;23;20420;-63
2023/01/14 16:13:21;;;;;;;6.67;1.93;;;9.00;19.80;;;;;;6007468;23;20425;-64
2023/01/14 16:15:50;;;;;;;5.53;2.10;;;9.00;19.40;;;;;;6006098;23;20431;-64
2023/01/14 16:18:19;;;;;;;7.70;2.73;;;9.00;19.80;;;;;;6006591;23;20452;-64
2023/01/14 16:20:46;;;;;;;4.20;1.53;;;9.00;19.70;;;;;;6007147;23;20420;-63
2023/01/14 16:23:12;;;;;;;5.33;2.17;;;9.00;19.80;;;;;;6006174;23;20425;-64
2023/01/14 16:25:41;;;;;;;4.83;1.53;;;9.00;19.90;;;;;;6005414;23;20428;-63
2023/01/14 16:28:09;;;;;;;5.40;1.40;;;9.00;19.80;;;;;;6006174;23;20423;-64
2023/01/14 16:30:36;;;;;;;5.57;1.60;;;9.00;19.60;;;;;;6005806;23;20440;-64
2023/01/14 16:33:03;;;;;;;5.63;1.70;;;9.00;19.50;;;;;;6007008;23;20425;-64
2023/01/14 16:35:30;;;;;;;6.27;1.90;;;9.00;19.90;;;;;;6005626;23;20449;-64
2023/01/14 16:37:56;;;;;;;5.10;1.33;;;9.00;20.10;;;;;;6006479;23;20452;-63
2023/01/14 16:40:27;;;;;;;6.00;1.73;;;8.90;20.40;;;;;;6006037;23;20425;-63
2023/01/14 16:42:55;;;;;;;7.83;3.10;;;8.90;20.80;;;;;;6005928;23;20492;-63
2023/01/14 16:45:22;;;;;;;9.90;4.60;;;8.90;21.20;;;;;;6005702;23;20441;-63
2023/01/14 16:47:50;;;;;;;9.90;4.57;;;8.90;21.40;;;;;;6006820;23;20440;-63
2023/01/14 16:50:18;;;;;;;6.00;1.97;;;8.90;21.70;;;;;;6005805;23;20757;-64
2023/01/14 16:52:45;;;;;;;7.00;2.90;;;8.90;21.90;;;;;;6006989;23;20421;-63
2023/01/14 16:55:19;;;;;;;5.47;2.07;;;8.90;22.20;;;;;;6005170;23;20445;-62
2023/01/14 16:57:46;;;;;;;5.93;1.63;;;8.80;22.70;;;;;;6007043;23;20428;-65